Time;durP1;ratioP1;P1;durP2;ratioP2;P2;SDS_P1;SDS_P2;PMS_P1;PMS_P2;Temp;Humidity;BMP_temperature;BMP_pressure;BME280_temperature;BME280_humidity;BME280_pressure;Samples;Min_cycle;Max_cycle;Signal;HPM_P1;HPM_P2
2022/01/19 00:00:30;;;;;;;433.07;408.27;;;2.70;99.90;;;;;;4406540;32;20190;-61
2022/01/19 00:02:58;;;;;;;421.30;397.50;;;2.70;99.90;;;;;;4405428;32;20174;-61
2022/01/19 00:05:27;;;;;;;406.30;383.63;;;2.60;99.90;;;;;;4404125;32;20152;-62
2022/01/19 00:07:54;;;;;;;403.43;380.67;;;2.60;99.90;;;;;;4405514;32;20163;-62
2022/01/19 00:10:30;;;;;;;422.30;397.70;;;2.60;99.90;;;;;;4405106;32;20161;-64
2022/01/19 00:13:03;;;;;;;406.63;383.47;;;2.50;99.90;;;;;;4403415;32;20466;-61
2022/01/19 00:15:32;;;;;;;403.63;380.20;;;2.50;99.90;;;;;;4403445;32;20176;-63
2022/01/19 00:18:06;;;;;;;442.93;417.90;;;2.50;99.90;;;;;;4405790;32;20252;-61
2022/01/19 00:20:37;;;;;;;403.53;380.90;;;2.50;99.90;;;;;;4396199;32;20177;-62
2022/01/19 00:23:11;;;;;;;414.53;390.87;;;2.40;99.90;;;;;;4391269;32;20587;-62
2022/01/19 00:25:47;;;;;;;388.33;365.73;;;2.40;99.90;;;;;;4389307;32;20595;-62
2022/01/19 00:28:25;;;;;;;386.00;363.20;;;2.40;99.90;;;;;;4390194;32;20182;-62
2022/01/19 00:31:03;;;;;;;378.23;356.43;;;2.30;99.90;;;;;;4402640;32;20173;-61
2022/01/19 00:33:36;;;;;;;376.47;354.37;;;2.30;99.90;;;;;;4405295;32;20516;-62
2022/01/19 00:36:09;;;;;;;405.13;381.77;;;2.30;99.90;;;;;;4404206;32;20152;-61
2022/01/19 00:38:43;;;;;;;358.13;337.03;;;2.30;99.90;;;;;;4399520;32;20510;-62
2022/01/19 00:41:12;;;;;;;367.10;346.67;;;2.20;99.90;;;;;;4396342;32;20614;-61
2022/01/19 00:43:42;;;;;;;400.27;377.33;;;2.20;99.90;;;;;;4405928;32;20203;-62
2022/01/19 00:46:11;;;;;;;388.63;366.73;;;2.20;99.90;;;;;;4404682;32;20685;-62
2022/01/19 00:48:41;;;;;;;383.90;361.50;;;2.10;99.90;;;;;;4390699;32;20158;-62
2022/01/19 00:51:11;;;;;;;378.20;356.00;;;2.10;99.90;;;;;;4391728;32;20175;-62
2022/01/19 00:53:45;;;;;;;378.20;356.20;;;2.10;99.90;;;;;;4405008;32;20153;-62
2022/01/19 00:56:18;;;;;;;381.40;359.40;;;2.10;99.90;;;;;;4392817;32;20191;-61
2022/01/19 00:58:50;;;;;;;373.60;352.17;;;2.00;99.90;;;;;;4392764;32;20567;-62
2022/01/19 01:01:17;;;;;;;358.33;337.17;;;2.00;99.90;;;;;;4406202;32;20160;-62
2022/01/19 01:03:46;;;;;;;398.87;375.73;;;2.00;99.90;;;;;;4407766;32;20157;-62
2022/01/19 01:06:20;;;;;;;362.37;340.97;;;2.00;99.90;;;;;;4407944;32;20518;-62
2022/01/19 01:08:47;;;;;;;370.83;351.03;;;2.00;99.90;;;;;;4409373;32;20155;-62
2022/01/19 01:11:36;;;;;;;384.07;361.70;;;2.00;99.90;;;;;;4407803;32;20172;-62
2022/01/19 01:17:13;;;;;;;342.87;323.70;;;1.90;99.90;;;;;;4399292;32;20173;-62
2022/01/19 01:19:47;;;;;;;357.57;337.40;;;1.90;99.90;;;;;;4403378;32;20673;-62
2022/01/19 01:22:20;;;;;;;348.33;328.47;;;1.90;99.90;;;;;;4396329;32;20597;-62
2022/01/19 01:24:47;;;;;;;355.37;335.03;;;1.90;99.90;;;;;;4392337;32;20148;-62
2022/01/19 01:27:21;;;;;;;374.37;353.43;;;1.90;99.90;;;;;;4407315;32;20173;-61
2022/01/19 01:29:47;;;;;;;361.17;340.77;;;1.80;99.90;;;;;;4408429;32;20156;-62
2022/01/19 01:32:27;;;;;;;359.47;339.60;;;1.80;99.90;;;;;;4406857;32;20576;-62
2022/01/19 01:35:00;;;;;;;343.10;323.93;;;1.80;99.90;;;;;;4407379;32;20160;-62
2022/01/19 01:37:27;;;;;;;332.27;313.47;;;1.80;99.90;;;;;;4407699;32;20176;-62
2022/01/19 01:39:58;;;;;;;338.40;318.80;;;1.70;99.90;;;;;;4408655;32;20182;-62
2022/01/19 01:42:28;;;;;;;347.00;326.80;;;1.70;99.90;;;;;;4402755;32;20154;-61
2022/01/19 01:45:00;;;;;;;345.13;326.87;;;1.70;99.90;;;;;;4407544;32;20147;-61
2022/01/19 01:47:28;;;;;;;332.13;313.27;;;1.70;99.90;;;;;;4403430;32;20189;-61
2022/01/19 01:55:31;;;;;;;292.43;275.50;;;1.70;99.90;;;;;;4396981;32;20211;-61
2022/01/19 01:58:02;;;;;;;325.30;307.20;;;1.60;99.90;;;;;;4407255;32;20493;-61
2022/01/19 02:00:32;;;;;;;300.43;284.10;;;1.60;99.90;;;;;;4407082;32;20152;-61
2022/01/19 02:03:05;;;;;;;320.03;302.13;;;1.60;99.90;;;;;;4406882;32;20140;-61
2022/01/19 02:05:52;;;;;;;292.97;277.57;;;1.60;99.90;;;;;;4397075;32;20224;-61
2022/01/19 02:08:24;;;;;;;295.33;278.77;;;1.50;99.90;;;;;;4407121;32;20608;-61
2022/01/19 02:11:08;;;;;;;298.10;281.83;;;1.50;99.90;;;;;;4406995;32;20177;-61
2022/01/19 02:16:48;;;;;;;266.87;251.20;;;1.40;99.90;;;;;;4402718;32;20186;-61
2022/01/19 02:22:03;;;;;;;292.77;277.80;;;1.40;99.90;;;;;;4405592;32;20618;-62
2022/01/19 02:24:43;;;;;;;294.90;278.73;;;1.30;99.90;;;;;;4407130;32;20191;-63
2022/01/19 02:41:11;;;;;;;294.50;278.10;;;1.40;99.90;;;;;;4406592;32;20551;-61
2022/01/19 02:43:45;;;;;;;305.70;289.20;;;1.40;99.90;;;;;;4408047;32;20162;-61
2022/01/19 02:46:52;;;;;;;296.10;280.33;;;1.40;99.90;;;;;;4393300;32;20167;-61
2022/01/19 02:49:22;;;;;;;261.80;247.17;;;1.40;99.90;;;;;;4407826;32;20183;-61
2022/01/19 02:52:00;;;;;;;285.83;269.73;;;1.30;99.90;;;;;;4403520;32;20471;-62
2022/01/19 02:54:29;;;;;;;279.67;264.03;;;1.30;99.90;;;;;;4403973;32;20177;-62
2022/01/19 02:57:00;;;;;;;279.77;264.60;;;1.40;99.90;;;;;;4405993;32;20178;-61
2022/01/19 02:59:39;;;;;;;270.57;255.47;;;1.30;99.90;;;;;;4404395;32;20801;-62
2022/01/19 03:10:44;;;;;;;246.43;232.27;;;1.20;99.90;;;;;;4406716;32;20172;-61
2022/01/19 03:13:15;;;;;;;271.47;256.17;;;1.20;99.90;;;;;;4404508;32;20192;-62
2022/01/19 03:15:41;;;;;;;282.33;267.43;;;1.20;99.90;;;;;;4406238;32;20152;-62
2022/01/19 03:18:14;;;;;;;284.40;269.03;;;1.40;99.90;;;;;;4406359;32;20140;-61
2022/01/19 03:20:54;;;;;;;288.90;272.97;;;1.30;99.90;;;;;;4405558;32;20140;-62
2022/01/19 03:23:24;;;;;;;297.43;281.33;;;1.40;99.90;;;;;;4406365;32;20171;-62
2022/01/19 03:26:06;;;;;;;298.47;282.53;;;1.50;99.90;;;;;;4405279;32;20141;-62
2022/01/19 03:28:33;;;;;;;285.67;270.40;;;1.60;99.90;;;;;;4400533;32;20475;-62
2022/01/19 03:31:01;;;;;;;303.93;287.30;;;1.60;99.90;;;;;;4403672;32;20556;-62
2022/01/19 03:33:35;;;;;;;293.03;277.23;;;1.60;99.90;;;;;;4401763;32;20145;-62
2022/01/19 03:36:07;;;;;;;290.60;274.90;;;1.50;99.90;;;;;;4398082;32;20592;-61
2022/01/19 03:38:40;;;;;;;279.30;264.53;;;1.60;99.90;;;;;;4400360;32;20144;-62
2022/01/19 03:41:14;;;;;;;279.90;264.87;;;1.40;99.90;;;;;;4405702;32;20144;-62
2022/01/19 03:43:50;;;;;;;270.97;256.17;;;1.40;99.90;;;;;;4405731;32;20663;-61
2022/01/19 03:46:32;;;;;;;274.97;259.70;;;1.40;99.90;;;;;;4405698;32;20503;-62
2022/01/19 03:49:10;;;;;;;263.77;248.77;;;1.30;99.90;;;;;;4404714;32;20206;-62
2022/01/19 03:51:58;;;;;;;259.57;244.83;;;1.30;99.90;;;;;;4404973;32;20152;-62
2022/01/19 03:54:32;;;;;;;268.23;252.83;;;1.30;99.90;;;;;;4404564;32;20154;-61
2022/01/19 03:57:11;;;;;;;271.10;256.03;;;1.30;99.90;;;;;;4399057;32;20153;-62
2022/01/19 03:59:38;;;;;;;250.30;236.37;;;1.30;99.90;;;;;;4401507;32;20175;-62
2022/01/19 04:02:06;;;;;;;262.00;247.53;;;1.20;99.90;;;;;;4406586;32;20195;-62
2022/01/19 04:04:40;;;;;;;269.37;254.70;;;1.30;99.90;;;;;;4405609;32;20136;-62
2022/01/19 04:07:18;;;;;;;271.23;256.57;;;1.30;99.90;;;;;;4392078;32;20486;-61
2022/01/19 04:09:46;;;;;;;266.07;251.40;;;1.20;99.90;;;;;;4405723;32;20582;-61
2022/01/19 04:12:30;;;;;;;280.30;264.33;;;1.30;99.90;;;;;;4405298;32;20195;-62
2022/01/19 04:15:05;;;;;;;278.00;262.97;;;1.30;99.90;;;;;;4406089;32;20190;-62
2022/01/19 04:17:36;;;;;;;268.87;253.43;;;1.40;99.90;;;;;;4400850;32;20144;-61
2022/01/19 04:20:09;;;;;;;284.17;268.67;;;1.50;99.90;;;;;;4405078;32;20210;-61
2022/01/19 04:22:36;;;;;;;298.13;281.63;;;1.50;99.90;;;;;;4405693;32;20589;-62
2022/01/19 04:25:07;;;;;;;285.67;270.47;;;1.50;99.90;;;;;;4405554;32;20240;-61
2022/01/19 04:27:37;;;;;;;314.80;297.60;;;1.60;99.90;;;;;;4397756;32;20508;-62
2022/01/19 04:30:09;;;;;;;296.80;279.97;;;1.70;99.90;;;;;;4391662;32;20222;-62
2022/01/19 04:32:44;;;;;;;322.93;305.50;;;1.80;99.90;;;;;;4405284;32;20578;-62
2022/01/19 04:35:43;;;;;;;319.27;301.90;;;2.00;99.90;;;;;;4405394;32;20229;-62
2022/01/19 05:03:45;;;;;;;307.07;289.80;;;2.40;99.90;;;;;;4327647;33;20160;-61
2022/01/19 05:06:19;;;;;;;336.07;318.13;;;2.40;99.90;;;;;;4327924;33;20719;-62
2022/01/19 05:08:58;;;;;;;337.77;319.50;;;2.30;99.90;;;;;;4327850;33;20639;-62
2022/01/19 05:14:26;;;;;;;341.63;323.13;;;2.50;99.90;;;;;;4333122;33;20212;-62
2022/01/19 05:16:59;;;;;;;353.77;334.67;;;2.60;99.90;;;;;;4371087;32;20206;-62
2022/01/19 05:19:34;;;;;;;351.57;332.63;;;2.70;99.90;;;;;;4372279;32;20165;-62
2022/01/19 05:22:08;;;;;;;364.57;345.23;;;2.70;99.90;;;;;;4372891;32;20479;-62
2022/01/19 05:24:35;;;;;;;384.97;365.30;;;2.80;99.90;;;;;;4392408;32;20576;-62
2022/01/19 05:27:04;;;;;;;380.00;360.07;;;2.90;99.90;;;;;;4405392;32;20197;-62
2022/01/19 05:29:36;;;;;;;379.23;358.97;;;2.90;99.90;;;;;;4404597;32;20235;-62
2022/01/19 05:32:07;;;;;;;382.77;362.60;;;3.00;99.90;;;;;;4405704;32;20153;-62
2022/01/19 05:34:54;;;;;;;378.63;358.33;;;3.00;99.90;;;;;;4405389;32;20145;-62
2022/01/19 05:37:36;;;;;;;366.90;346.70;;;3.00;99.90;;;;;;4393516;32;20142;-62
2022/01/19 05:40:05;;;;;;;396.83;375.53;;;3.00;99.90;;;;;;4404599;32;20208;-62
2022/01/19 05:42:32;;;;;;;398.10;375.53;;;3.10;99.90;;;;;;4405122;32;20150;-62
2022/01/19 05:44:59;;;;;;;400.03;377.77;;;3.10;99.90;;;;;;4393075;32;20147;-61
2022/01/19 05:47:37;;;;;;;389.13;367.27;;;3.10;99.90;;;;;;4407895;32;20193;-62
2022/01/19 05:50:22;;;;;;;380.70;359.63;;;3.10;99.90;;;;;;4407437;32;20138;-62
2022/01/19 05:52:58;;;;;;;417.87;395.30;;;3.20;99.90;;;;;;4407579;32;20615;-61
2022/01/19 05:55:36;;;;;;;387.13;365.27;;;3.20;99.90;;;;;;4404520;32;20151;-62
2022/01/19 05:58:05;;;;;;;385.50;363.40;;;3.20;99.90;;;;;;4378165;32;20225;-62
2022/01/19 06:00:32;;;;;;;398.33;375.90;;;3.20;99.90;;;;;;4377098;32;20602;-62
2022/01/19 06:03:05;;;;;;;413.37;390.83;;;3.20;99.90;;;;;;4329672;32;1812679;-62
2022/01/19 06:05:35;;;;;;;423.70;400.00;;;3.30;99.90;;;;;;4382413;32;20163;-62
2022/01/19 06:08:28;;;;;;;423.23;400.47;;;3.30;99.90;;;;;;4379678;32;20152;-62
2022/01/19 06:11:03;;;;;;;390.07;368.83;;;3.40;99.90;;;;;;4383689;32;20182;-61
2022/01/19 06:13:35;;;;;;;396.13;374.40;;;3.40;99.90;;;;;;4391526;32;20179;-62
2022/01/19 06:16:06;;;;;;;415.17;392.93;;;3.40;99.90;;;;;;4384685;32;20149;-62
2022/01/19 06:18:35;;;;;;;424.30;400.03;;;3.40;99.90;;;;;;4384750;32;20166;-62
2022/01/19 06:21:08;;;;;;;421.20;397.90;;;3.50;99.90;;;;;;4384544;32;20148;-61
2022/01/19 06:23:55;;;;;;;425.63;402.43;;;3.40;99.90;;;;;;4384014;32;20152;-62
2022/01/19 06:26:26;;;;;;;408.93;386.47;;;3.50;99.90;;;;;;4386403;32;20227;-61
2022/01/19 06:28:53;;;;;;;439.20;414.60;;;3.50;99.90;;;;;;4378831;32;20197;-61
2022/01/19 06:31:29;;;;;;;427.23;404.63;;;3.60;99.90;;;;;;4383288;32;20167;-62
2022/01/19 06:34:00;;;;;;;428.83;404.73;;;3.50;99.90;;;;;;4383920;32;20200;-62
2022/01/19 06:36:33;;;;;;;424.20;401.10;;;3.60;99.90;;;;;;4381710;32;20151;-62
2022/01/19 06:39:03;;;;;;;443.53;419.47;;;3.60;99.90;;;;;;4382717;32;20173;-62
2022/01/19 06:41:30;;;;;;;424.97;402.03;;;3.60;99.90;;;;;;4381213;32;20227;-62
2022/01/19 06:44:14;;;;;;;431.87;407.73;;;3.60;99.90;;;;;;4383309;32;20182;-62
2022/01/19 06:46:50;;;;;;;419.40;396.83;;;3.60;99.90;;;;;;4381639;32;20588;-62
2022/01/19 06:49:19;;;;;;;402.20;379.67;;;3.60;99.90;;;;;;4382834;32;20133;-62
2022/01/19 06:52:02;;;;;;;403.97;382.90;;;3.60;99.90;;;;;;4384647;32;20140;-62
2022/01/19 06:54:48;;;;;;;413.50;391.07;;;3.60;99.90;;;;;;4386904;32;20140;-62
2022/01/19 06:57:16;;;;;;;407.47;385.43;;;3.60;99.90;;;;;;4392112;32;20205;-62
2022/01/19 06:59:48;;;;;;;385.77;365.27;;;3.60;99.90;;;;;;4394593;32;20175;-62
2022/01/19 07:02:18;;;;;;;392.40;371.07;;;3.60;99.90;;;;;;4398105;32;20140;-61
2022/01/19 07:04:50;;;;;;;391.73;370.57;;;3.60;99.90;;;;;;4400904;32;20148;-61
2022/01/19 07:07:24;;;;;;;423.67;400.60;;;3.60;99.90;;;;;;4396788;32;20214;-63
2022/01/19 07:09:58;;;;;;;395.63;374.40;;;3.60;99.90;;;;;;4400299;32;20511;-65
2022/01/19 07:12:34;;;;;;;400.97;378.80;;;3.60;99.90;;;;;;4399632;32;20202;-60
2022/01/19 07:15:00;;;;;;;415.77;391.97;;;3.60;99.90;;;;;;4394873;32;20161;-61
2022/01/19 07:17:35;;;;;;;443.30;419.10;;;3.60;99.90;;;;;;4407038;32;20451;-61
2022/01/19 07:20:08;;;;;;;439.10;415.47;;;3.70;99.90;;;;;;4406801;32;20181;-61
2022/01/19 07:22:36;;;;;;;436.23;412.30;;;3.70;99.90;;;;;;4406070;32;20144;-61
2022/01/19 07:25:13;;;;;;;448.83;424.17;;;3.70;99.90;;;;;;4398763;32;20165;-61
2022/01/19 07:27:41;;;;;;;412.43;390.00;;;3.80;99.90;;;;;;4382026;32;20174;-64
2022/01/19 07:30:12;;;;;;;426.17;403.27;;;3.70;99.90;;;;;;4405677;32;20135;-63
2022/01/19 07:32:39;;;;;;;436.30;411.77;;;3.70;99.90;;;;;;4397677;32;20199;-61
2022/01/19 07:35:09;;;;;;;422.87;399.13;;;3.70;99.90;;;;;;4397221;32;20140;-61
2022/01/19 07:37:37;;;;;;;422.00;398.37;;;3.70;99.90;;;;;;4399512;32;20154;-63
2022/01/19 07:40:11;;;;;;;428.50;405.37;;;3.80;99.90;;;;;;4399455;32;20641;-61
2022/01/19 07:42:43;;;;;;;430.70;407.33;;;3.80;99.90;;;;;;4402909;32;20142;-63
2022/01/19 07:45:16;;;;;;;408.73;385.70;;;3.80;99.90;;;;;;4406605;32;20143;-62
2022/01/19 07:48:05;;;;;;;425.57;401.67;;;3.80;99.90;;;;;;4406059;32;20654;-62
2022/01/19 07:50:44;;;;;;;417.43;394.17;;;3.80;99.90;;;;;;4398309;32;20173;-63
2022/01/19 07:53:12;;;;;;;407.60;384.10;;;3.90;99.90;;;;;;4392252;32;20156;-62
2022/01/19 07:55:55;;;;;;;417.70;394.10;;;3.80;99.90;;;;;;4390994;32;20425;-61
2022/01/19 07:58:27;;;;;;;407.87;384.00;;;3.80;99.90;;;;;;4390777;32;20189;-61
2022/01/19 08:00:57;;;;;;;439.50;414.07;;;3.80;99.90;;;;;;4390977;32;20172;-61
2022/01/19 08:03:27;;;;;;;428.10;403.47;;;3.80;99.90;;;;;;4390963;32;20245;-62
2022/01/19 08:05:56;;;;;;;455.27;428.23;;;3.80;99.90;;;;;;4390645;32;20175;-62
2022/01/19 08:08:24;;;;;;;457.60;430.73;;;3.80;99.90;;;;;;4390932;32;20135;-61
2022/01/19 08:10:57;;;;;;;414.57;390.17;;;3.90;99.90;;;;;;4390762;32;20140;-61
2022/01/19 08:13:27;;;;;;;448.00;422.77;;;3.90;99.90;;;;;;4391066;32;20178;-62
2022/01/19 08:15:57;;;;;;;468.60;440.73;;;3.90;99.90;;;;;;4390797;32;20168;-62
2022/01/19 08:18:38;;;;;;;448.57;422.77;;;3.90;99.90;;;;;;4390905;32;20484;-62
2022/01/19 08:21:10;;;;;;;443.40;417.63;;;3.90;99.90;;;;;;4390902;32;20131;-62
2022/01/19 08:23:39;;;;;;;445.20;419.43;;;3.90;99.90;;;;;;4391653;32;20555;-61
2022/01/19 08:29:06;;;;;;;428.97;404.37;;;4.00;99.90;;;;;;4343344;33;20648;-61
2022/01/19 08:31:37;;;;;;;447.37;421.20;;;4.00;99.90;;;;;;4343661;33;20156;-62
2022/01/19 08:34:22;;;;;;;459.47;431.77;;;4.00;99.90;;;;;;4344602;33;20201;-62
2022/01/19 08:36:53;;;;;;;447.77;421.03;;;4.00;99.90;;;;;;4299609;33;20164;-63
2022/01/19 08:39:34;;;;;;;455.90;427.87;;;4.00;99.90;;;;;;4300837;33;20156;-65
2022/01/19 08:45:07;;;;;;;;;;;;;;;;;;;;;
2022/01/19 08:47:39;;;;;;;439.27;412.80;;;4.10;99.90;;;;;;4270386;33;20699;-62
2022/01/19 08:50:18;;;;;;;443.07;416.03;;;4.00;99.90;;;;;;4270772;33;20245;-62
2022/01/19 08:52:49;;;;;;;440.17;413.27;;;4.00;99.90;;;;;;4271104;33;20203;-62
2022/01/19 08:55:30;;;;;;;451.10;423.67;;;4.10;99.90;;;;;;4280151;33;20529;-62
2022/01/19 08:57:57;;;;;;;443.50;415.83;;;4.10;99.90;;;;;;4285436;33;20150;-62
2022/01/19 09:00:29;;;;;;;463.10;434.47;;;4.10;99.90;;;;;;4285555;33;20176;-62
2022/01/19 09:02:59;;;;;;;472.77;444.00;;;4.10;99.90;;;;;;4286229;33;20161;-61
2022/01/19 09:05:35;;;;;;;460.00;432.97;;;4.20;99.90;;;;;;4287687;33;20560;-64
2022/01/19 09:08:06;;;;;;;446.10;418.47;;;4.10;99.90;;;;;;4301125;33;20196;-64
2022/01/19 09:10:40;;;;;;;450.83;424.67;;;4.10;99.90;;;;;;4343510;33;20206;-66
2022/01/19 09:13:23;;;;;;;461.33;433.77;;;4.10;99.90;;;;;;4348793;32;20531;-60
2022/01/19 09:15:50;;;;;;;469.97;442.03;;;4.20;99.90;;;;;;4405380;32;20186;-64
2022/01/19 09:18:20;;;;;;;474.13;445.77;;;4.10;99.90;;;;;;4406639;32;20140;-62
2022/01/19 09:20:52;;;;;;;472.10;444.37;;;4.20;99.90;;;;;;4408852;32;20154;-62
2022/01/19 09:23:35;;;;;;;465.10;437.30;;;4.30;99.90;;;;;;4408524;32;20206;-62
2022/01/19 09:26:29;;;;;;;472.43;444.73;;;4.40;99.90;;;;;;4408151;32;20624;-63
2022/01/19 09:29:01;;;;;;;451.60;424.33;;;4.40;99.90;;;;;;4360901;33;20191;-62
2022/01/19 09:31:34;;;;;;;468.97;440.67;;;4.40;99.90;;;;;;4354693;32;20182;-64
2022/01/19 09:34:13;;;;;;;448.17;421.43;;;4.40;99.90;;;;;;4350923;33;20407;-60
2022/01/19 09:36:46;;;;;;;438.50;412.30;;;4.40;99.90;;;;;;4348897;33;20498;-63
2022/01/19 09:39:31;;;;;;;451.60;424.90;;;4.30;99.90;;;;;;4345895;32;20240;-62
2022/01/19 09:42:25;;;;;;;437.00;411.37;;;4.30;99.90;;;;;;4345050;32;20589;-61
2022/01/19 09:44:57;;;;;;;436.53;411.30;;;4.30;99.90;;;;;;4347724;32;20161;-60
2022/01/19 09:47:33;;;;;;;453.17;426.20;;;4.30;99.90;;;;;;4350545;32;20179;-61
2022/01/19 09:50:11;;;;;;;456.93;429.00;;;4.40;99.90;;;;;;4349888;32;20207;-61
2022/01/19 09:52:40;;;;;;;466.90;438.67;;;4.40;99.90;;;;;;4357220;33;20476;-62
2022/01/19 09:55:11;;;;;;;470.87;443.00;;;4.50;99.90;;;;;;4348697;33;20550;-64
2022/01/19 09:57:38;;;;;;;460.30;433.03;;;4.50;99.90;;;;;;4348987;33;20153;-63
2022/01/19 10:00:18;;;;;;;465.03;436.90;;;4.50;99.90;;;;;;4351279;33;20637;-62
2022/01/19 10:03:10;;;;;;;485.33;456.37;;;4.50;99.90;;;;;;4345469;33;20157;-61
2022/01/19 10:05:37;;;;;;;457.53;430.43;;;4.50;99.90;;;;;;4358145;32;20240;-65
2022/01/19 10:08:07;;;;;;;463.70;437.10;;;4.50;99.90;;;;;;4393963;32;20572;-61
2022/01/19 10:10:47;;;;;;;472.43;445.47;;;4.60;99.90;;;;;;4399959;32;20144;-62
2022/01/19 10:19:21;;;;;;;477.73;450.63;;;4.60;99.90;;;;;;4401466;32;20202;-64
2022/01/19 10:22:10;;;;;;;437.53;412.07;;;4.60;99.90;;;;;;4398448;32;20204;-61
2022/01/19 10:24:50;;;;;;;454.33;428.13;;;4.60;99.90;;;;;;4397855;32;20232;-61
2022/01/19 10:27:36;;;;;;;456.70;429.63;;;4.60;99.90;;;;;;4395040;32;20486;-61
2022/01/19 10:30:25;;;;;;;463.93;438.20;;;4.70;99.90;;;;;;4395461;32;20227;-62
2022/01/19 10:33:02;;;;;;;427.50;403.50;;;4.70;99.90;;;;;;4395995;32;20166;-61
2022/01/19 10:35:37;;;;;;;460.60;434.43;;;4.80;99.90;;;;;;4397247;32;20543;-61
2022/01/19 10:38:27;;;;;;;452.20;426.90;;;4.80;99.90;;;;;;4397267;32;20163;-63
2022/01/19 10:41:12;;;;;;;461.37;435.70;;;4.70;99.90;;;;;;4396686;32;20162;-62
2022/01/19 10:43:48;;;;;;;456.10;430.63;;;4.80;99.90;;;;;;4398422;32;20164;-62
2022/01/19 10:46:30;;;;;;;478.00;452.03;;;4.90;99.90;;;;;;4398608;32;20183;-62
2022/01/19 10:49:00;;;;;;;460.57;434.87;;;4.90;99.90;;;;;;4396233;32;20160;-64
2022/01/19 10:51:31;;;;;;;471.97;445.90;;;4.80;99.90;;;;;;4395730;32;20144;-62
2022/01/19 10:54:17;;;;;;;477.40;450.67;;;4.80;99.90;;;;;;4396097;32;20148;-62
2022/01/19 10:56:59;;;;;;;442.23;418.03;;;4.90;99.90;;;;;;4398221;32;20157;-65
2022/01/19 11:02:27;;;;;;;431.03;406.90;;;4.70;99.90;;;;;;4357969;32;20260;-63
2022/01/19 11:04:56;;;;;;;463.90;438.23;;;4.70;99.90;;;;;;4370524;32;20160;-66
2022/01/19 11:07:35;;;;;;;467.07;441.53;;;4.80;99.90;;;;;;4363075;32;20465;-61
2022/01/19 11:10:12;;;;;;;463.80;438.53;;;4.70;99.90;;;;;;4358402;32;20156;-64
2022/01/19 11:12:52;;;;;;;468.23;441.83;;;4.80;99.90;;;;;;4358887;33;20160;-64
2022/01/19 11:15:22;;;;;;;474.07;447.20;;;4.80;99.90;;;;;;4367849;32;20213;-63
2022/01/19 11:17:55;;;;;;;474.67;447.87;;;4.90;99.90;;;;;;4374394;32;20172;-62
2022/01/19 11:20:26;;;;;;;494.13;466.33;;;4.90;99.90;;;;;;4359683;32;20162;-65
2022/01/19 11:23:43;;;;;;;494.33;465.90;;;5.00;99.90;;;;;;4364551;32;20168;-61
2022/01/19 11:26:26;;;;;;;482.23;455.03;;;5.10;99.90;;;;;;4352933;32;20326;-62
2022/01/19 11:28:53;;;;;;;473.53;447.10;;;5.20;99.90;;;;;;4358689;32;20429;-63
2022/01/19 11:31:40;;;;;;;496.30;468.67;;;5.40;99.90;;;;;;4359794;32;20191;-64
2022/01/19 11:34:09;;;;;;;492.03;464.40;;;5.50;99.90;;;;;;4359350;32;20156;-61
2022/01/19 11:36:47;;;;;;;502.77;473.93;;;5.60;99.90;;;;;;4360730;32;20161;-62
2022/01/19 11:39:30;;;;;;;500.53;472.47;;;5.80;99.90;;;;;;4372429;32;20155;-61
2022/01/19 11:42:01;;;;;;;512.27;482.47;;;6.00;99.90;;;;;;4397264;32;20148;-62
2022/01/19 11:44:41;;;;;;;522.63;493.50;;;6.10;99.90;;;;;;4396297;32;20445;-61
2022/01/19 11:47:42;;;;;;;513.90;485.03;;;6.40;99.90;;;;;;4403107;32;20201;-64
2022/01/19 11:50:28;;;;;;;483.43;456.83;;;6.70;99.90;;;;;;4399407;32;20593;-62
2022/01/19 11:53:13;;;;;;;517.00;488.13;;;6.90;99.90;;;;;;4396816;32;20189;-62
2022/01/19 11:55:47;;;;;;;475.73;450.10;;;6.60;99.90;;;;;;4398142;32;20168;-61
2022/01/19 11:58:17;;;;;;;501.47;473.73;;;6.70;99.90;;;;;;4400078;32;20160;-61
2022/01/19 12:00:50;;;;;;;500.33;472.73;;;6.60;99.90;;;;;;4393751;32;20135;-63
2022/01/19 12:03:39;;;;;;;492.57;465.43;;;6.70;99.90;;;;;;4399795;32;20225;-63
2022/01/19 12:06:08;;;;;;;501.80;474.83;;;7.00;99.90;;;;;;4395489;32;20192;-63
2022/01/19 12:08:44;;;;;;;510.13;482.17;;;6.80;99.90;;;;;;4402808;32;20201;-62
2022/01/19 12:11:18;;;;;;;501.73;474.30;;;6.70;99.90;;;;;;4393963;32;20154;-63
2022/01/19 12:14:08;;;;;;;503.50;475.43;;;6.40;99.90;;;;;;4396566;32;20148;-62
2022/01/19 12:16:55;;;;;;;483.37;456.73;;;6.30;99.90;;;;;;4395355;32;20197;-62
2022/01/19 12:19:30;;;;;;;485.37;458.53;;;6.20;99.90;;;;;;4394019;32;20197;-62
2022/01/19 12:22:12;;;;;;;502.47;475.13;;;6.20;99.90;;;;;;4393624;32;20229;-62
2022/01/19 12:24:44;;;;;;;506.10;478.50;;;6.40;99.90;;;;;;4394867;32;20584;-63
2022/01/19 12:27:44;;;;;;;496.27;469.10;;;6.50;99.90;;;;;;4396313;32;20608;-62
2022/01/19 12:30:18;;;;;;;484.73;458.20;;;6.60;99.90;;;;;;4394696;32;20144;-61
2022/01/19 12:33:03;;;;;;;479.57;453.77;;;6.70;99.90;;;;;;4397549;32;20182;-61
2022/01/19 12:35:35;;;;;;;490.47;463.80;;;6.70;99.90;;;;;;4394816;32;20152;-62
2022/01/19 12:38:06;;;;;;;493.37;466.47;;;6.70;99.90;;;;;;4397984;32;20197;-63
2022/01/19 12:40:39;;;;;;;510.17;482.13;;;6.50;99.90;;;;;;4397362;32;20148;-62
2022/01/19 12:43:14;;;;;;;510.03;481.47;;;6.50;99.90;;;;;;4396803;32;20162;-64
2022/01/19 12:45:48;;;;;;;515.93;487.03;;;6.50;99.90;;;;;;4398319;32;20181;-64
2022/01/19 12:48:39;;;;;;;509.10;480.60;;;6.60;99.90;;;;;;4397105;32;20572;-62
2022/01/19 12:51:37;;;;;;;499.30;472.03;;;6.60;99.90;;;;;;4394540;32;20252;-61
2022/01/19 12:54:16;;;;;;;484.07;458.33;;;6.70;99.90;;;;;;4399266;32;20204;-62
2022/01/19 12:57:03;;;;;;;499.17;471.93;;;6.70;99.90;;;;;;4400023;32;20203;-62
2022/01/19 12:59:34;;;;;;;501.30;474.17;;;6.50;99.90;;;;;;4400905;32;20198;-62
2022/01/19 13:02:06;;;;;;;512.60;484.50;;;6.50;99.90;;;;;;4396626;32;20140;-63
2022/01/19 13:04:39;;;;;;;506.67;479.10;;;6.50;99.90;;;;;;4402462;32;20156;-62
2022/01/19 13:07:21;;;;;;;506.50;479.03;;;6.40;99.90;;;;;;4405046;32;20207;-65
2022/01/19 13:10:18;;;;;;;487.10;461.00;;;6.30;99.90;;;;;;4400025;32;20163;-62
2022/01/19 13:13:07;;;;;;;497.87;470.03;;;6.20;99.90;;;;;;4357029;33;20648;-62
2022/01/19 13:18:44;;;;;;;504.90;477.10;;;6.30;99.90;;;;;;4357289;33;20173;-64
2022/01/19 13:21:21;;;;;;;510.73;482.43;;;6.40;99.90;;;;;;4359403;32;20157;-64
2022/01/19 13:24:02;;;;;;;505.33;477.63;;;6.40;99.90;;;;;;4359364;32;20705;-62
2022/01/19 13:26:47;;;;;;;521.10;492.33;;;6.40;99.90;;;;;;4360119;32;20174;-66
2022/01/19 13:29:23;;;;;;;520.73;491.57;;;6.40;99.90;;;;;;4358858;33;20190;-63
2022/01/19 13:32:10;;;;;;;520.80;492.20;;;6.30;99.90;;;;;;4359953;32;20164;-62
2022/01/19 13:34:52;;;;;;;514.50;485.70;;;6.30;99.90;;;;;;4356844;32;20640;-62
2022/01/19 13:37:31;;;;;;;528.60;499.70;;;6.20;99.90;;;;;;4360093;32;20157;-62
2022/01/19 13:40:01;;;;;;;511.73;483.30;;;6.40;99.90;;;;;;4360861;32;20156;-65
2022/01/19 13:42:50;;;;;;;522.57;493.37;;;6.40;99.90;;;;;;4367625;32;20173;-61
2022/01/19 13:45:29;;;;;;;503.33;475.93;;;6.40;99.90;;;;;;4363639;32;20152;-62
2022/01/19 13:48:20;;;;;;;516.87;488.87;;;6.50;99.90;;;;;;4369125;32;20571;-65
2022/01/19 13:50:52;;;;;;;493.93;467.37;;;6.50;99.90;;;;;;4398877;32;20202;-62
2022/01/19 13:53:32;;;;;;;516.13;487.47;;;6.50;99.90;;;;;;4394465;32;20161;-61
2022/01/19 13:56:14;;;;;;;506.17;478.87;;;6.40;99.90;;;;;;4410918;32;20216;-63
2022/01/19 13:58:45;;;;;;;513.90;485.43;;;6.40;99.90;;;;;;4414023;32;20151;-62
2022/01/19 14:01:33;;;;;;;531.77;502.83;;;6.40;99.90;;;;;;4416307;32;20204;-61
2022/01/19 14:04:06;;;;;;;513.87;485.43;;;6.40;99.90;;;;;;4416839;32;20202;-62
2022/01/19 14:06:37;;;;;;;524.93;496.17;;;6.40;99.90;;;;;;4413893;32;20590;-62
2022/01/19 14:09:14;;;;;;;521.77;492.90;;;6.40;99.90;;;;;;4413265;32;20256;-66
2022/01/19 14:11:51;;;;;;;506.03;478.23;;;6.30;99.90;;;;;;4408145;32;20193;-63
2022/01/19 14:14:24;;;;;;;520.63;492.27;;;6.30;99.90;;;;;;4412745;32;20151;-62
2022/01/19 14:16:56;;;;;;;533.70;504.57;;;6.20;99.90;;;;;;4411235;32;20205;-62
2022/01/19 14:19:46;;;;;;;537.40;508.27;;;6.10;99.90;;;;;;4419724;32;20204;-64
2022/01/19 14:22:17;;;;;;;530.43;501.30;;;6.20;99.90;;;;;;4410415;32;20144;-64